Time;durP1;ratioP1;P1;durP2;ratioP2;P2;SDS_P1;SDS_P2;PMS_P1;PMS_P2;Temp;Humidity;BMP_temperature;BMP_pressure;BME280_temperature;BME280_humidity;BME280_pressure;Samples;Min_cycle;Max_cycle;Signal;HPM_P1;HPM_P2
2023/03/13 00:00:23;;;;;;;;;;;16.60;63.20;;;;;;10230235;28;94630;-70
2023/03/13 00:05:25;;;;;;;;;;;16.60;63.20;;;;;;10226901;28;97599;-70
2023/03/13 00:10:27;;;;;;;;;;;16.50;63.10;;;;;;10229273;28;93392;-70
2023/03/13 00:15:28;;;;;;;;;;;16.50;63.10;;;;;;10246583;28;94506;-70
2023/03/13 00:20:30;;;;;;;;;;;16.50;63.10;;;;;;10245682;28;94291;-70
2023/03/13 00:25:32;;;;;;;;;;;16.50;63.10;;;;;;10230270;28;93901;-71
2023/03/13 00:30:34;;;;;;;;;;;16.50;63.00;;;;;;10246734;28;93465;-71
2023/03/13 00:35:35;;;;;;;;;;;16.50;63.00;;;;;;10245257;28;93993;-70
2023/03/13 00:40:37;;;;;;;;;;;16.40;63.00;;;;;;10247122;28;93241;-70
2023/03/13 00:45:39;;;;;;;;;;;16.40;63.00;;;;;;10245726;28;93766;-71
2023/03/13 00:50:41;;;;;;;;;;;16.40;63.00;;;;;;10229124;28;94902;-70
2023/03/13 00:55:53;;;;;;;;;;;16.40;62.90;;;;;;10243523;28;96898;-70
2023/03/13 01:00:55;;;;;;;;;;;16.40;62.90;;;;;;10235495;28;94340;-70
2023/03/13 01:05:58;;;;;;;;;;;16.40;63.00;;;;;;10252230;28;93099;-70
2023/03/13 01:11:01;;;;;;;;;;;16.40;62.90;;;;;;10252252;28;93070;-69
2023/03/13 01:16:09;;;;;;;;;;;16.40;62.90;;;;;;10252545;28;93113;-70
2023/03/13 01:21:12;;;;;;;;;;;16.40;62.90;;;;;;10250890;28;93972;-70
2023/03/13 01:26:14;;;;;;;;;;;16.30;62.80;;;;;;10251990;28;93110;-70
2023/03/13 01:31:20;;;;;;;;;;;16.30;62.80;;;;;;10251486;28;91808;-70
2023/03/13 01:36:22;;;;;;;;;;;16.30;62.90;;;;;;10251415;28;94427;-70
2023/03/13 01:41:24;;;;;;;;;;;16.30;62.90;;;;;;10251731;28;94634;-69
2023/03/13 01:46:27;;;;;;;;;;;16.30;62.90;;;;;;10248242;28;95658;-69
2023/03/13 01:51:31;;;;;;;;;;;16.30;62.90;;;;;;10251320;28;94649;-69
2023/03/13 01:56:39;;;;;;;;;;;16.30;62.90;;;;;;10251290;28;93608;-70
2023/03/13 02:01:42;;;;;;;;;;;16.30;63.00;;;;;;10251250;28;94585;-70
2023/03/13 02:06:45;;;;;;;;;;;16.30;62.90;;;;;;10250298;28;93714;-69
2023/03/13 02:12:10;;;;;;;;;;;16.20;63.00;;;;;;10250275;28;94026;-70
2023/03/13 02:17:12;;;;;;;;;;;16.20;62.90;;;;;;10237281;28;94734;-70
2023/03/13 02:22:33;;;;;;;;;;;16.20;62.90;;;;;;10251061;28;93659;-70
2023/03/13 02:27:34;;;;;;;;;;;16.20;62.90;;;;;;10251020;28;92645;-70
2023/03/13 02:32:37;;;;;;;;;;;16.20;63.00;;;;;;10249674;28;93749;-70
2023/03/13 02:37:40;;;;;;;;;;;16.20;63.00;;;;;;10246758;28;96021;-70
2023/03/13 02:42:43;;;;;;;;;;;16.20;63.00;;;;;;10250184;28;93585;-69
2023/03/13 02:47:45;;;;;;;;;;;16.20;63.00;;;;;;10249721;28;93104;-70
2023/03/13 02:52:51;;;;;;;;;;;16.10;63.00;;;;;;10248456;28;93814;-70
2023/03/13 02:57:52;;;;;;;;;;;16.20;63.10;;;;;;10248937;28;93838;-70
2023/03/13 03:02:55;;;;;;;;;;;16.10;63.00;;;;;;10231963;28;93927;-70
2023/03/13 03:07:56;;;;;;;;;;;16.20;63.10;;;;;;10248575;28;93785;-70
2023/03/13 03:12:58;;;;;;;;;;;16.10;63.10;;;;;;10250144;28;93885;-70
2023/03/13 03:18:00;;;;;;;;;;;16.10;63.10;;;;;;10231579;28;94255;-71
2023/03/13 03:23:01;;;;;;;;;;;16.10;63.10;;;;;;10247976;28;93662;-70
2023/03/13 03:28:03;;;;;;;;;;;16.10;63.10;;;;;;10245078;28;96000;-69
2023/03/13 03:33:05;;;;;;;;;;;16.20;63.10;;;;;;10248315;28;94380;-70
2023/03/13 03:38:07;;;;;;;;;;;16.10;63.10;;;;;;10247558;28;93453;-70
2023/03/13 03:43:09;;;;;;;;;;;16.10;63.10;;;;;;10247545;28;93999;-70
2023/03/13 03:48:11;;;;;;;;;;;16.10;63.20;;;;;;10247951;28;93807;-69
2023/03/13 03:53:12;;;;;;;;;;;16.10;63.20;;;;;;10246322;28;93574;-71
2023/03/13 03:58:14;;;;;;;;;;;16.10;63.20;;;;;;10247011;28;93130;-70
2023/03/13 04:03:16;;;;;;;;;;;16.10;63.20;;;;;;10247985;28;92677;-69
2023/03/13 04:08:18;;;;;;;;;;;16.10;63.20;;;;;;10229080;28;94504;-70
2023/03/13 04:13:20;;;;;;;;;;;16.10;63.30;;;;;;10247058;28;93452;-69
2023/03/13 04:18:21;;;;;;;;;;;16.10;63.30;;;;;;10227915;28;96879;-70
2023/03/13 04:23:23;;;;;;;;;;;16.10;63.40;;;;;;10246826;28;93590;-70
2023/03/13 04:28:25;;;;;;;;;;;16.10;63.40;;;;;;10245644;28;93477;-71
2023/03/13 04:33:28;;;;;;;;;;;16.00;63.40;;;;;;10251458;28;93180;-70
2023/03/13 04:38:29;;;;;;;;;;;16.00;63.40;;;;;;10253799;28;94446;-70
2023/03/13 04:43:31;;;;;;;;;;;16.00;63.50;;;;;;10253217;28;92948;-70
2023/03/13 06:05:10;;;;;;;;;;;16.50;64.00;;;;;;10198015;28;93473;-74
2023/03/13 06:10:12;;;;;;;;;;;16.60;63.70;;;;;;10210087;28;93457;-74
2023/03/13 06:15:13;;;;;;;;;;;16.70;63.30;;;;;;10190776;28;95654;-74
2023/03/13 06:20:15;;;;;;;;;;;16.80;63.30;;;;;;10209522;28;93505;-73
2023/03/13 06:25:17;;;;;;;;;;;16.80;63.20;;;;;;10210322;28;94158;-73
2023/03/13 06:30:18;;;;;;;;;;;16.80;63.20;;;;;;10209924;28;93767;-74
2023/03/13 06:35:20;;;;;;;;;;;16.80;63.30;;;;;;10208974;28;93498;-74
2023/03/13 06:40:22;;;;;;;;;;;16.80;63.40;;;;;;10209187;28;94601;-76
2023/03/13 06:45:24;;;;;;;;;;;16.80;63.40;;;;;;10209664;28;93238;-75
2023/03/13 06:50:26;;;;;;;;;;;16.80;63.40;;;;;;10206068;28;92677;-76
2023/03/13 06:55:27;;;;;;;;;;;16.80;63.40;;;;;;10207498;28;93465;-76
2023/03/13 07:00:29;;;;;;;;;;;16.80;63.40;;;;;;10208740;28;93226;-75
2023/03/13 07:05:31;;;;;;;;;;;16.80;64.30;;;;;;10187494;28;95972;-76
2023/03/13 07:10:33;;;;;;;;;;;16.90;65.00;;;;;;10191293;28;93295;-71
2023/03/13 07:15:34;;;;;;;;;;;16.90;65.20;;;;;;10209550;28;94493;-67
2023/03/13 07:20:36;;;;;;;;;;;17.00;66.60;;;;;;10208113;28;93587;-71
2023/03/13 07:25:38;;;;;;;;;;;17.00;66.60;;;;;;10190998;28;93433;-70
2023/03/13 07:30:40;;;;;;;;;;;17.00;66.40;;;;;;10207153;28;94426;-70
2023/03/13 07:35:51;;;;;;;;;;;17.00;66.00;;;;;;10206967;28;92537;-71
2023/03/13 07:40:53;;;;;;;;;;;16.90;65.50;;;;;;10207541;28;92821;-70
2023/03/13 07:45:59;;;;;;;;;;;16.90;65.50;;;;;;10207811;28;93325;-71
2023/03/13 07:51:01;;;;;;;;;;;16.80;65.30;;;;;;10206423;28;94654;-70
2023/03/13 07:56:08;;;;;;;;;;;16.80;65.30;;;;;;10187167;28;96051;-70
2023/03/13 08:01:15;;;;;;;;;;;16.80;65.10;;;;;;10207093;28;94374;-71
2023/03/13 08:06:18;;;;;;;;;;;16.70;65.20;;;;;;10206472;28;94374;-70
2023/03/13 08:11:21;;;;;;;;;;;16.70;65.10;;;;;;10206575;28;93660;-71
2023/03/13 08:16:25;;;;;;;;;;;16.70;65.00;;;;;;10205428;28;92554;-70
2023/03/13 08:21:29;;;;;;;;;;;16.60;65.00;;;;;;10205878;28;93472;-70
2023/03/13 08:26:31;;;;;;;;;;;16.60;65.00;;;;;;10206967;28;94516;-70
2023/03/13 08:31:34;;;;;;;;;;;16.60;65.00;;;;;;10207198;28;92575;-70
2023/03/13 08:36:36;;;;;;;;;;;16.60;65.10;;;;;;10205451;28;93447;-70
2023/03/13 08:41:39;;;;;;;;;;;16.60;65.10;;;;;;10205840;28;93456;-71
2023/03/13 08:46:42;;;;;;;;;;;16.60;65.30;;;;;;10185193;28;95896;-71
2023/03/13 08:51:44;;;;;;;;;;;16.50;65.60;;;;;;10188704;28;93521;-71
2023/03/13 08:56:46;;;;;;;;;;;16.50;65.20;;;;;;10206710;28;92510;-71
2023/03/13 09:01:48;;;;;;;;;;;16.50;65.20;;;;;;10206564;28;93495;-71
2023/03/13 09:06:50;;;;;;;;;;;16.50;65.30;;;;;;10206186;28;93384;-71
2023/03/13 09:11:51;;;;;;;;;;;16.40;65.20;;;;;;10205035;28;93421;-71
2023/03/13 09:16:55;;;;;;;;;;;16.40;65.30;;;;;;10205348;28;93256;-71
2023/03/13 09:21:57;;;;;;;;;;;16.40;65.50;;;;;;10212706;28;94078;-70
2023/03/13 09:26:58;;;;;;;;;;;16.40;65.30;;;;;;10211572;28;94252;-70
2023/03/13 09:32:02;;;;;;;;;;;16.40;65.30;;;;;;10211871;28;92579;-70
2023/03/13 09:37:04;;;;;;;;;;;16.40;65.20;;;;;;10208238;28;95866;-70
2023/03/13 09:42:15;;;;;;;;;;;16.40;65.20;;;;;;10211504;28;94599;-70
2023/03/13 09:47:25;;;;;;;;;;;16.40;65.10;;;;;;10210242;28;94455;-70
2023/03/13 09:52:35;;;;;;;;;;;16.40;65.00;;;;;;10211217;28;93998;-71
2023/03/13 09:57:45;;;;;;;;;;;16.40;64.90;;;;;;10210232;28;93580;-71
2023/03/13 10:02:55;;;;;;;;;;;16.40;64.90;;;;;;10210044;28;93295;-70
2023/03/13 10:08:00;;;;;;;;;;;16.40;64.90;;;;;;10210753;28;94571;-70
2023/03/13 10:13:08;;;;;;;;;;;16.40;64.80;;;;;;10211296;28;92577;-71
2023/03/13 10:18:20;;;;;;;;;;;16.40;64.60;;;;;;10192706;28;112730;-70
2023/03/13 10:23:38;;;;;;;;;;;16.50;64.60;;;;;;10210274;28;93989;-70
2023/03/13 10:28:39;;;;;;;;;;;16.50;64.60;;;;;;10205685;28;99121;-70
2023/03/13 10:33:41;;;;;;;;;;;16.40;64.60;;;;;;10192059;28;93146;-70
2023/03/13 10:38:51;;;;;;;;;;;16.50;64.60;;;;;;10210336;28;93499;-70
2023/03/13 10:43:54;;;;;;;;;;;16.40;64.60;;;;;;10209798;28;94497;-70
2023/03/13 10:48:56;;;;;;;;;;;16.40;64.50;;;;;;10191364;28;93293;-70
2023/03/13 10:53:58;;;;;;;;;;;16.40;64.60;;;;;;10209791;28;94721;-70
2023/03/13 10:58:59;;;;;;;;;;;16.50;64.70;;;;;;10191117;28;94434;-71
2023/03/13 11:04:17;;;;;;;;;;;16.60;64.60;;;;;;10209784;28;93166;-70
2023/03/13 11:09:19;;;;;;;;;;;16.60;64.40;;;;;;10208299;28;93497;-70
2023/03/13 11:14:22;;;;;;;;;;;16.60;64.40;;;;;;10208111;28;94476;-70
2023/03/13 11:19:23;;;;;;;;;;;16.60;64.40;;;;;;10206579;28;94909;-70
2023/03/13 11:24:36;;;;;;;;;;;16.60;64.30;;;;;;10208487;28;93603;-70
2023/03/13 11:29:40;;;;;;;;;;;16.60;64.20;;;;;;10206929;28;93799;-70
2023/03/13 11:34:45;;;;;;;;;;;16.60;64.10;;;;;;10207403;28;93783;-70
2023/03/13 11:39:46;;;;;;;;;;;16.70;64.10;;;;;;10206813;28;94647;-70
2023/03/13 11:44:54;;;;;;;;;;;16.70;64.00;;;;;;10190634;28;94845;-71
2023/03/13 11:49:58;;;;;;;;;;;16.70;63.90;;;;;;10206795;28;93406;-70
2023/03/13 11:55:06;;;;;;;;;;;16.70;63.90;;;;;;10207532;28;92634;-70
2023/03/13 12:00:17;;;;;;;;;;;16.70;63.80;;;;;;10207300;28;93821;-70
2023/03/13 12:05:19;;;;;;;;;;;16.70;63.70;;;;;;10207062;28;93979;-70
2023/03/13 12:10:33;;;;;;;;;;;16.70;63.70;;;;;;10204406;28;95847;-70
2023/03/13 12:15:43;;;;;;;;;;;16.70;63.60;;;;;;10188601;28;93602;-70
2023/03/13 12:20:46;;;;;;;;;;;16.60;63.60;;;;;;10207471;28;94085;-71
2023/03/13 12:26:01;;;;;;;;;;;16.60;63.60;;;;;;10205767;28;93393;-70
2023/03/13 12:31:07;;;;;;;;;;;16.60;63.60;;;;;;10207375;28;94433;-71
2023/03/13 12:36:12;;;;;;;;;;;16.60;63.60;;;;;;10206614;28;93788;-71
2023/03/13 12:41:20;;;;;;;;;;;16.70;63.60;;;;;;10172062;28;93601;-71
2023/03/13 12:46:28;;;;;;;;;;;16.70;63.40;;;;;;10206658;28;93104;-71
2023/03/13 12:51:48;;;;;;;;;;;16.70;63.30;;;;;;10205082;28;93682;-71
2023/03/13 12:57:08;;;;;;;;;;;16.70;63.30;;;;;;10195637;28;94695;-71
2023/03/13 13:02:21;;;;;;;;;;;16.70;63.10;;;;;;10209484;28;96300;-71
2023/03/13 13:07:28;;;;;;;;;;;16.60;63.00;;;;;;10194494;28;93560;-71
2023/03/13 13:12:30;;;;;;;;;;;16.60;63.10;;;;;;10195084;28;93337;-71
2023/03/13 13:17:41;;;;;;;;;;;16.60;63.00;;;;;;10211877;28;94347;-71
2023/03/13 13:22:47;;;;;;;;;;;16.60;63.00;;;;;;10211573;28;93647;-71
2023/03/13 13:27:50;;;;;;;;;;;16.60;63.10;;;;;;10211659;28;93756;-71
2023/03/13 13:32:53;;;;;;;;;;;16.60;63.00;;;;;;10211957;28;94100;-71
2023/03/13 13:38:13;;;;;;;;;;;16.60;63.10;;;;;;10211424;28;92551;-71
2023/03/13 13:43:21;;;;;;;;;;;16.70;63.00;;;;;;10194155;28;94698;-71
2023/03/13 13:48:25;;;;;;;;;;;16.70;62.90;;;;;;10193292;28;93225;-71
2023/03/13 13:53:29;;;;;;;;;;;16.70;62.90;;;;;;10208497;28;96006;-70
2023/03/13 13:58:31;;;;;;;;;;;16.70;62.90;;;;;;10210399;28;93444;-70
2023/03/13 14:03:34;;;;;;;;;;;16.70;62.80;;;;;;10210166;28;93760;-70
2023/03/13 14:08:38;;;;;;;;;;;16.70;62.80;;;;;;10193943;28;94275;-69
2023/03/13 14:13:40;;;;;;;;;;;16.70;62.80;;;;;;10211284;28;95642;-71
2023/03/13 14:18:42;;;;;;;;;;;16.70;62.80;;;;;;10210656;28;94221;-71
2023/03/13 14:23:45;;;;;;;;;;;16.70;62.70;;;;;;10193236;28;94499;-71
2023/03/13 14:28:57;;;;;;;;;;;16.80;62.70;;;;;;10210412;28;93700;-71
2023/03/13 14:34:01;;;;;;;;;;;16.80;62.60;;;;;;10209911;28;94515;-70
2023/03/13 14:39:03;;;;;;;;;;;16.80;62.40;;;;;;10207035;28;93390;-71
2023/03/13 14:44:06;;;;;;;;;;;16.80;62.40;;;;;;10207633;28;96895;-71
2023/03/13 14:49:18;;;;;;;;;;;16.80;62.40;;;;;;10208154;28;92551;-70
2023/03/13 14:54:24;;;;;;;;;;;16.80;62.30;;;;;;10209514;28;93470;-70
2023/03/13 14:59:26;;;;;;;;;;;16.80;62.20;;;;;;10192051;28;94599;-70
2023/03/13 15:04:46;;;;;;;;;;;16.80;62.30;;;;;;10191242;28;94461;-70
2023/03/13 15:09:48;;;;;;;;;;;16.80;62.30;;;;;;10208817;28;93435;-70
2023/03/13 15:14:51;;;;;;;;;;;16.80;62.30;;;;;;10206718;28;92879;-70
2023/03/13 15:19:57;;;;;;;;;;;16.80;62.20;;;;;;10208837;28;92730;-70
2023/03/13 15:24:59;;;;;;;;;;;16.80;62.10;;;;;;10208303;28;93965;-70
2023/03/13 15:30:13;;;;;;;;;;;16.80;62.00;;;;;;10207753;28;92774;-70
2023/03/13 15:35:21;;;;;;;;;;;16.80;62.00;;;;;;10204953;28;96120;-70
2023/03/13 15:40:23;;;;;;;;;;;16.90;61.90;;;;;;10208434;28;94545;-69
2023/03/13 15:45:25;;;;;;;;;;;16.90;61.90;;;;;;10207658;28;93657;-70
2023/03/13 15:50:29;;;;;;;;;;;16.90;61.90;;;;;;10207621;28;94651;-71
2023/03/13 15:55:31;;;;;;;;;;;16.90;61.90;;;;;;10209190;28;94916;-70
2023/03/13 16:00:33;;;;;;;;;;;16.90;61.90;;;;;;10208189;28;94863;-69
2023/03/13 16:05:34;;;;;;;;;;;16.90;61.80;;;;;;10190515;28;93595;-69
2023/03/13 16:10:36;;;;;;;;;;;16.90;61.90;;;;;;10207310;28;92645;-70
2023/03/13 16:15:38;;;;;;;;;;;16.90;61.90;;;;;;10207589;28;94524;-70
2023/03/13 16:20:40;;;;;;;;;;;17.00;61.90;;;;;;10207029;28;94442;-70
2023/03/13 16:25:43;;;;;;;;;;;17.00;61.80;;;;;;10204453;28;95780;-70
2023/03/13 16:30:48;;;;;;;;;;;17.00;61.80;;;;;;10196761;28;93363;-70
2023/03/13 16:35:51;;;;;;;;;;;17.00;61.70;;;;;;10213443;28;94517;-70
2023/03/13 16:40:53;;;;;;;;;;;17.00;61.70;;;;;;10213509;28;94121;-70
2023/03/13 16:45:55;;;;;;;;;;;17.00;61.50;;;;;;10212888;28;92946;-70
2023/03/13 16:50:57;;;;;;;;;;;17.00;61.50;;;;;;10195607;28;94680;-70
2023/03/13 16:55:59;;;;;;;;;;;16.90;61.40;;;;;;10196398;28;94551;-70
2023/03/13 17:01:03;;;;;;;;;;;16.90;61.40;;;;;;10213100;28;92169;-70
2023/03/13 17:06:11;;;;;;;;;;;16.90;61.30;;;;;;10212861;28;94391;-70
2023/03/13 17:11:15;;;;;;;;;;;16.80;61.30;;;;;;10212873;28;93621;-70
2023/03/13 17:16:20;;;;;;;;;;;16.80;61.20;;;;;;10209536;28;95874;-70
2023/03/13 17:21:22;;;;;;;;;;;16.80;61.20;;;;;;10212013;28;93197;-70
2023/03/13 17:26:26;;;;;;;;;;;16.70;61.10;;;;;;10213410;28;93665;-71
2023/03/13 17:31:29;;;;;;;;;;;16.70;61.20;;;;;;10211682;28;94444;-71
2023/03/13 17:36:31;;;;;;;;;;;16.70;61.30;;;;;;10194973;28;94424;-71
2023/03/13 17:41:33;;;;;;;;;;;16.70;61.30;;;;;;10210285;28;93644;-70
2023/03/13 17:46:35;;;;;;;;;;;16.70;61.30;;;;;;10193877;28;94594;-70
2023/03/13 17:51:40;;;;;;;;;;;16.70;61.30;;;;;;10212850;28;93691;-70
2023/03/13 17:56:42;;;;;;;;;;;16.80;61.40;;;;;;10210756;28;94208;-70
2023/03/13 18:01:44;;;;;;;;;;;17.00;61.10;;;;;;10193270;28;94465;-70
2023/03/13 18:06:47;;;;;;;;;;;17.10;60.80;;;;;;10190699;28;96035;-70
2023/03/13 18:11:49;;;;;;;;;;;17.20;60.40;;;;;;10210943;28;94894;-70
2023/03/13 18:16:55;;;;;;;;;;;17.30;60.30;;;;;;10209909;28;93460;-70
2023/03/13 18:21:57;;;;;;;;;;;17.30;60.20;;;;;;10208339;28;93532;-65
2023/03/13 18:26:59;;;;;;;;;;;17.30;60.20;;;;;;10210134;28;94703;-68
2023/03/13 18:32:00;;;;;;;;;;;17.40;62.50;;;;;;10209050;28;94490;-69
2023/03/13 18:37:02;;;;;;;;;;;17.50;62.90;;;;;;10209489;28;93023;-69
2023/03/13 18:42:06;;;;;;;;;;;17.60;62.00;;;;;;10209479;28;94059;-69
2023/03/13 18:47:09;;;;;;;;;;;17.60;61.70;;;;;;10208223;28;92978;-69
2023/03/13 18:52:11;;;;;;;;;;;17.60;61.60;;;;;;10173783;28;93435;-69
2023/03/13 18:57:14;;;;;;;;;;;17.50;61.60;;;;;;10205530;28;96349;-69
2023/03/13 19:02:16;;;;;;;;;;;17.60;61.60;;;;;;10191462;28;93673;-68
2023/03/13 19:07:23;;;;;;;;;;;17.60;61.60;;;;;;10208552;28;93435;-68
2023/03/13 19:12:24;;;;;;;;;;;17.60;61.50;;;;;;10207502;28;93304;-68
2023/03/13 19:17:35;;;;;;;;;;;17.60;61.50;;;;;;10369665;28;87643;-66
2023/03/13 19:22:37;;;;;;;;;;;17.60;61.50;;;;;;10368974;28;87931;-67
2023/03/13 19:27:39;;;;;;;;;;;17.60;61.50;;;;;;10367973;28;88133;-67
2023/03/13 19:32:41;;;;;;;;;;;17.60;61.40;;;;;;10382790;27;87655;-67
2023/03/13 19:37:43;;;;;;;;;;;17.60;61.40;;;;;;10368824;28;88173;-68
2023/03/13 19:42:45;;;;;;;;;;;17.60;61.40;;;;;;10367033;28;88661;-67
2023/03/13 19:47:47;;;;;;;;;;;17.60;61.40;;;;;;10366524;28;88900;-67
2023/03/13 19:52:49;;;;;;;;;;;17.70;61.40;;;;;;10367767;28;88137;-67
2023/03/13 19:57:51;;;;;;;;;;;17.70;61.30;;;;;;10367762;28;87694;-67
2023/03/13 20:02:55;;;;;;;;;;;17.70;61.30;;;;;;10366560;28;89200;-67
2023/03/13 20:07:57;;;;;;;;;;;17.70;61.40;;;;;;10367372;28;88629;-67
2023/03/13 20:12:59;;;;;;;;;;;17.70;61.50;;;;;;10366388;28;88261;-67
2023/03/13 20:18:01;;;;;;;;;;;17.70;61.30;;;;;;10367566;28;89197;-67
2023/03/13 20:23:02;;;;;;;;;;;17.70;61.30;;;;;;10366380;28;88817;-67
2023/03/13 20:28:04;;;;;;;;;;;17.70;61.20;;;;;;10344669;28;88896;-67
2023/03/13 20:33:06;;;;;;;;;;;17.60;61.10;;;;;;10339250;28;88295;-67
2023/03/13 20:38:08;;;;;;;;;;;17.70;61.20;;;;;;10339748;28;88136;-68
2023/03/13 20:43:10;;;;;;;;;;;17.70;61.10;;;;;;10338732;28;88192;-67
2023/03/13 20:48:11;;;;;;;;;;;17.70;61.00;;;;;;10339792;28;87991;-68
2023/03/13 20:53:14;;;;;;;;;;;17.60;60.80;;;;;;10335714;28;88596;-67
2023/03/13 20:58:16;;;;;;;;;;;17.60;61.00;;;;;;10338471;28;87721;-67
2023/03/13 21:03:18;;;;;;;;;;;17.60;61.00;;;;;;10337780;28;88129;-67
2023/03/13 21:08:20;;;;;;;;;;;17.50;60.90;;;;;;10336679;28;89257;-67
2023/03/13 21:13:21;;;;;;;;;;;17.50;61.20;;;;;;10336795;28;88231;-67
2023/03/13 21:18:23;;;;;;;;;;;17.50;61.30;;;;;;10337296;28;89106;-67
2023/03/13 21:23:25;;;;;;;;;;;17.50;61.40;;;;;;10337334;28;88582;-67
2023/03/13 21:28:27;;;;;;;;;;;17.40;61.40;;;;;;10338182;28;88215;-67
2023/03/13 21:33:29;;;;;;;;;;;17.40;61.50;;;;;;10337609;28;88002;-67
2023/03/13 21:38:30;;;;;;;;;;;17.30;61.60;;;;;;10335834;28;88519;-69
2023/03/13 21:43:32;;;;;;;;;;;17.30;61.70;;;;;;10336709;28;89222;-69
2023/03/13 21:48:35;;;;;;;;;;;17.30;61.70;;;;;;10335972;28;88963;-68
2023/03/13 21:53:37;;;;;;;;;;;17.30;61.80;;;;;;10337188;28;89149;-68
2023/03/13 21:58:39;;;;;;;;;;;17.20;61.70;;;;;;10336738;28;88422;-69
2023/03/13 22:03:41;;;;;;;;;;;17.20;61.70;;;;;;10335477;28;89323;-68
2023/03/13 22:08:44;;;;;;;;;;;17.20;61.70;;;;;;10336636;28;88159;-69
2023/03/13 22:13:45;;;;;;;;;;;17.20;61.60;;;;;;10335827;28;89611;-69
2023/03/13 22:18:47;;;;;;;;;;;17.10;61.60;;;;;;10336200;28;89046;-69
2023/03/13 22:23:49;;;;;;;;;;;17.10;61.60;;;;;;10335970;28;88142;-69
2023/03/13 22:28:50;;;;;;;;;;;17.10;61.60;;;;;;10335648;28;89245;-68
2023/03/13 22:33:52;;;;;;;;;;;17.10;61.60;;;;;;10335441;28;88091;-69
2023/03/13 22:38:54;;;;;;;;;;;17.10;61.60;;;;;;10335977;28;88173;-69
2023/03/13 22:43:56;;;;;;;;;;;17.00;61.50;;;;;;10333684;28;89085;-69
2023/03/13 22:48:57;;;;;;;;;;;17.00;61.50;;;;;;10365760;28;88056;-69
2023/03/13 22:53:59;;;;;;;;;;;17.00;61.50;;;;;;10333650;28;89344;-68
2023/03/13 22:59:02;;;;;;;;;;;17.00;61.50;;;;;;10335250;28;89254;-69
2023/03/13 23:04:04;;;;;;;;;;;16.90;61.50;;;;;;10335371;28;88290;-69
2023/03/13 23:09:06;;;;;;;;;;;16.90;61.30;;;;;;10335308;28;87949;-69
2023/03/13 23:14:07;;;;;;;;;;;16.90;61.40;;;;;;10333794;28;88302;-69
2023/03/13 23:19:10;;;;;;;;;;;16.90;61.50;;;;;;10333576;28;87910;-69
2023/03/13 23:24:11;;;;;;;;;;;16.90;61.50;;;;;;10334239;28;88263;-69
2023/03/13 23:29:13;;;;;;;;;;;16.90;61.50;;;;;;10334474;28;88785;-69
2023/03/13 23:34:20;;;;;;;;;;;16.90;61.50;;;;;;10333850;28;88680;-69
2023/03/13 23:39:22;;;;;;;;;;;16.80;61.40;;;;;;10333966;28;89244;-69
2023/03/13 23:44:24;;;;;;;;;;;16.80;61.40;;;;;;10333919;28;89297;-69
2023/03/13 23:49:26;;;;;;;;;;;16.80;61.40;;;;;;10332843;28;88477;-68
2023/03/13 23:54:27;;;;;;;;;;;16.80;61.40;;;;;;10334217;28;88272;-69
2023/03/13 23:59:29;;;;;;;;;;;16.80;61.40;;;;;;10334649;28;89665;-68
